createdAt,value
2023-02-23T00:00:28.275Z,7.70
2023-02-23T00:02:55.982Z,7.70
2023-02-23T00:05:23.212Z,7.70
2023-02-23T00:07:52.055Z,7.70
2023-02-23T00:10:21.170Z,7.70
2023-02-23T00:12:49.490Z,7.70
2023-02-23T00:15:16.569Z,7.70
2023-02-23T00:17:43.811Z,7.70
2023-02-23T00:20:12.814Z,7.70
2023-02-23T00:22:40.161Z,7.60
2023-02-23T00:25:07.614Z,7.60
2023-02-23T00:27:35.451Z,7.60
2023-02-23T00:30:02.534Z,7.60
2023-02-23T00:32:29.701Z,7.60
2023-02-23T00:34:58.326Z,7.60
2023-02-23T00:37:25.415Z,7.60
2023-02-23T00:39:56.733Z,7.60
2023-02-23T00:42:23.966Z,7.70
2023-02-23T00:44:51.044Z,7.70
2023-02-23T00:47:18.193Z,7.70
2023-02-23T00:49:45.238Z,7.70
2023-02-23T00:52:14.755Z,7.70
2023-02-23T00:54:42.176Z,7.70
2023-02-23T00:57:09.278Z,7.70
2023-02-23T00:59:36.852Z,7.70
2023-02-23T01:02:03.998Z,7.70
2023-02-23T01:04:31.083Z,7.70
2023-02-23T01:06:58.143Z,7.70
2023-02-23T01:09:28.169Z,7.70
2023-02-23T01:11:56.472Z,7.70
2023-02-23T01:14:23.735Z,7.70
2023-02-23T01:16:50.867Z,7.70
2023-02-23T01:19:17.905Z,7.60
2023-02-23T01:21:44.989Z,7.70
2023-02-23T01:24:12.207Z,7.70
2023-02-23T01:26:40.661Z,7.70
2023-02-23T01:29:12.091Z,7.70
2023-02-23T01:31:40.186Z,7.70
2023-02-23T01:34:08.096Z,7.70
2023-02-23T01:36:36.648Z,7.70
2023-02-23T01:39:06.218Z,7.70
2023-02-23T01:41:33.525Z,7.60
2023-02-23T01:44:03.507Z,7.60
2023-02-23T01:46:31.234Z,7.60
2023-02-23T01:48:58.331Z,7.60
2023-02-23T01:51:26.772Z,7.60
2023-02-23T01:54:23.296Z,7.60
2023-02-23T01:56:57.827Z,7.60
2023-02-23T01:59:28.780Z,7.60
2023-02-23T02:01:56.779Z,7.60
2023-02-23T02:04:25.818Z,7.60
2023-02-23T02:06:53.812Z,7.60
2023-02-23T02:09:25.446Z,7.60
2023-02-23T02:11:54.251Z,7.60
2023-02-23T02:14:27.310Z,7.60
2023-02-23T02:17:11.198Z,7.60
2023-02-23T02:19:41.305Z,7.60
2023-02-23T02:22:14.598Z,7.60
2023-02-23T02:24:47.496Z,7.60
2023-02-23T02:27:43.458Z,7.60
2023-02-23T02:30:22.979Z,7.60
2023-02-23T02:33:11.145Z,7.60
2023-02-23T02:35:53.528Z,7.60
2023-02-23T02:38:38.357Z,7.60
2023-02-23T02:41:07.757Z,7.50
2023-02-23T02:43:43.846Z,7.50
2023-02-23T02:46:20.259Z,7.50
2023-02-23T02:49:06.608Z,7.50
2023-02-23T02:51:42.864Z,7.40
2023-02-23T02:54:16.440Z,7.40
2023-02-23T02:56:43.910Z,7.30
2023-02-23T02:59:31.748Z,7.30
2023-02-23T03:02:17.765Z,7.30
2023-02-23T03:05:03.749Z,7.30
2023-02-23T03:07:58.710Z,7.40
2023-02-23T03:11:07.718Z,7.40
2023-02-23T03:14:20.000Z,7.30
2023-02-23T03:17:11.909Z,7.30
2023-02-23T03:20:17.777Z,7.30
2023-02-23T03:23:25.286Z,7.30
2023-02-23T03:26:13.604Z,7.30
2023-02-23T03:29:04.401Z,7.30
2023-02-23T03:32:23.101Z,7.30
2023-02-23T03:35:36.346Z,7.20
2023-02-23T03:38:25.797Z,7.30
2023-02-23T03:41:11.640Z,7.20
2023-02-23T03:43:58.391Z,7.20
2023-02-23T03:46:44.306Z,7.20
2023-02-23T03:49:30.139Z,7.20
2023-02-23T03:52:18.786Z,7.10
2023-02-23T03:55:05.707Z,7.00
2023-02-23T03:57:52.572Z,7.00
2023-02-23T04:00:46.552Z,7.00
2023-02-23T04:03:32.930Z,7.00
2023-02-23T04:06:18.728Z,7.00
2023-02-23T04:09:04.637Z,6.90
2023-02-23T04:11:56.697Z,6.90
2023-02-23T04:14:24.528Z,6.90
2023-02-23T04:16:51.613Z,6.90
2023-02-23T04:19:18.677Z,6.80
2023-02-23T04:21:45.795Z,6.90
2023-02-23T04:24:13.133Z,6.80
2023-02-23T04:26:40.764Z,6.80
2023-02-23T04:29:07.832Z,6.80
2023-02-23T04:31:35.021Z,6.80
2023-02-23T04:34:02.183Z,6.70
2023-02-23T04:36:29.269Z,6.70
2023-02-23T04:38:56.635Z,6.70
2023-02-23T04:41:23.765Z,6.70
2023-02-23T04:43:50.813Z,6.70
2023-02-23T04:46:17.981Z,6.70
2023-02-23T04:48:45.067Z,6.70
2023-02-23T04:51:12.257Z,6.60
2023-02-23T04:53:40.590Z,6.60
2023-02-23T04:56:07.678Z,6.60
2023-02-23T04:58:34.767Z,6.60
2023-02-23T05:01:06.448Z,6.50
2023-02-23T05:03:33.627Z,6.50
2023-02-23T05:06:00.736Z,6.50
2023-02-23T05:08:27.794Z,6.50
2023-02-23T05:10:54.819Z,6.50
2023-02-23T05:13:22.010Z,6.40
2023-02-23T05:15:49.078Z,6.40
2023-02-23T05:19:00.543Z,6.40
2023-02-23T05:21:27.547Z,6.40
2023-02-23T05:23:54.578Z,6.40
2023-02-23T05:26:21.574Z,6.30
2023-02-23T05:28:48.726Z,6.30
2023-02-23T05:31:16.015Z,6.30
2023-02-23T05:33:43.170Z,6.30
2023-02-23T05:36:10.820Z,6.20
2023-02-23T05:38:38.123Z,6.30
2023-02-23T05:41:06.343Z,6.30
2023-02-23T05:43:33.420Z,6.30
2023-02-23T05:46:05.930Z,6.30
2023-02-23T05:48:33.942Z,6.30
2023-02-23T05:51:01.635Z,6.30
2023-02-23T05:53:28.721Z,6.30
2023-02-23T05:55:55.842Z,6.30
2023-02-23T05:58:23.129Z,6.30
2023-02-23T06:00:50.164Z,6.30
2023-02-23T06:03:17.343Z,6.30
2023-02-23T06:05:58.572Z,6.40
2023-02-23T06:08:26.246Z,6.40
2023-02-23T06:10:53.431Z,6.40
2023-02-23T06:13:21.261Z,6.40
2023-02-23T06:15:49.495Z,6.40
2023-02-23T06:18:17.546Z,6.40
2023-02-23T06:20:45.749Z,6.40
2023-02-23T06:23:15.541Z,6.50
2023-02-23T06:25:43.122Z,6.40
2023-02-23T06:28:10.548Z,6.50
2023-02-23T06:30:37.756Z,6.50
2023-02-23T06:33:05.486Z,6.50
2023-02-23T06:35:33.185Z,6.50
2023-02-23T06:38:00.459Z,6.60
2023-02-23T06:40:27.550Z,6.60
2023-02-23T06:42:54.643Z,6.60
2023-02-23T06:45:21.692Z,6.70
2023-02-23T06:47:48.880Z,6.70
2023-02-23T06:50:16.038Z,6.80
2023-02-23T06:52:43.149Z,6.80
2023-02-23T06:55:10.281Z,6.80
2023-02-23T06:57:38.580Z,6.80
2023-02-23T07:00:05.970Z,6.80
2023-02-23T07:02:33.046Z,6.80
2023-02-23T07:05:00.130Z,6.80
2023-02-23T07:07:27.199Z,6.90
2023-02-23T07:09:54.187Z,6.90
2023-02-23T07:12:21.494Z,7.00
2023-02-23T07:14:48.552Z,7.00
2023-02-23T07:17:15.584Z,7.10
2023-02-23T07:19:42.596Z,7.10
2023-02-23T07:22:09.734Z,7.10
2023-02-23T07:24:38.583Z,7.20
2023-02-23T07:27:05.704Z,7.20
2023-02-23T07:29:32.829Z,7.20
2023-02-23T07:32:00.051Z,7.30
2023-02-23T07:34:27.208Z,7.30
2023-02-23T07:36:54.231Z,7.30
2023-02-23T07:39:21.315Z,7.40
2023-02-23T07:41:48.375Z,7.40
2023-02-23T07:44:19.241Z,7.40
2023-02-23T07:46:46.458Z,7.50
2023-02-23T07:49:13.895Z,7.50
2023-02-23T07:51:41.006Z,7.60
2023-02-23T07:54:08.016Z,7.60
2023-02-23T07:56:35.466Z,7.60
2023-02-23T07:59:03.777Z,7.70
2023-02-23T08:01:30.998Z,7.80
2023-02-23T08:03:58.117Z,7.80
2023-02-23T08:06:25.138Z,7.80
2023-02-23T08:08:52.235Z,7.90
2023-02-23T08:11:19.590Z,8.00
2023-02-23T08:13:46.920Z,8.00
2023-02-23T08:16:16.430Z,8.00
2023-02-23T08:18:43.669Z,8.10
2023-02-23T08:21:10.949Z,8.10
2023-02-23T08:23:37.952Z,8.10
2023-02-23T08:26:05.103Z,8.20
2023-02-23T08:28:32.199Z,8.20
2023-02-23T08:30:59.651Z,8.30
2023-02-23T08:33:26.853Z,8.30
2023-02-23T08:35:53.860Z,8.30
2023-02-23T08:38:20.947Z,8.40
2023-02-23T08:40:48.006Z,8.40
2023-02-23T08:43:16.285Z,8.40
2023-02-23T08:45:43.399Z,8.50
2023-02-23T08:48:10.424Z,8.60
2023-02-23T08:50:37.488Z,8.60
2023-02-23T08:53:05.341Z,8.70
2023-02-23T08:55:35.493Z,8.70
2023-02-23T08:58:02.658Z,8.70
2023-02-23T09:04:07.552Z,8.80
2023-02-23T09:06:35.302Z,8.90
2023-02-23T09:09:02.321Z,8.90
2023-02-23T09:11:29.404Z,9.00
2023-02-23T09:13:56.424Z,9.00
2023-02-23T09:16:23.525Z,9.10
2023-02-23T09:18:50.725Z,9.10
2023-02-23T09:21:20.946Z,9.20
2023-02-23T09:23:49.720Z,9.30
2023-02-23T09:26:18.935Z,9.30
2023-02-23T09:28:46.261Z,9.30
2023-02-23T09:31:14.290Z,9.30
2023-02-23T09:33:41.438Z,9.40
2023-02-23T09:36:17.993Z,9.50
2023-02-23T09:38:45.538Z,9.50
2023-02-23T09:41:31.282Z,9.50
2023-02-23T09:43:58.824Z,9.60
2023-02-23T09:46:38.332Z,9.60
2023-02-23T09:49:05.730Z,9.60
2023-02-23T09:51:34.134Z,9.60
2023-02-23T09:54:01.203Z,9.70
2023-02-23T09:56:33.133Z,9.70
2023-02-23T09:59:00.333Z,9.80
2023-02-23T10:01:34.672Z,9.90
2023-02-23T10:04:01.726Z,9.90
2023-02-23T10:06:28.822Z,10.00
2023-02-23T10:08:58.993Z,10.00
2023-02-23T10:11:32.187Z,10.00
2023-02-23T10:14:20.273Z,10.00
2023-02-23T10:16:50.611Z,10.10
2023-02-23T10:19:40.581Z,10.20
2023-02-23T10:22:07.777Z,10.20
2023-02-23T10:24:40.425Z,10.30
2023-02-23T10:27:07.451Z,10.30
2023-02-23T10:29:54.752Z,10.30
2023-02-23T10:32:42.634Z,10.30
2023-02-23T10:35:14.205Z,10.30
2023-02-23T10:37:41.301Z,10.40
2023-02-23T10:40:13.111Z,10.30
2023-02-23T10:42:40.145Z,10.40
2023-02-23T10:45:22.629Z,10.40
2023-02-23T10:47:55.739Z,10.50
2023-02-23T10:50:27.569Z,10.60
2023-02-23T10:52:57.018Z,10.60
2023-02-23T10:55:29.191Z,10.60
2023-02-23T10:58:02.254Z,10.70
2023-02-23T11:00:32.797Z,10.60
2023-02-23T11:03:00.960Z,10.60
2023-02-23T11:05:45.405Z,10.60
2023-02-23T11:08:22.254Z,10.70
2023-02-23T11:11:02.984Z,10.70
2023-02-23T11:13:44.284Z,10.80
2023-02-23T11:16:11.426Z,10.80
2023-02-23T11:18:39.314Z,10.80
2023-02-23T11:21:12.930Z,10.90
2023-02-23T11:23:40.166Z,11.00
2023-02-23T11:26:22.923Z,11.00
2023-02-23T11:28:54.086Z,11.00
2023-02-23T11:31:22.695Z,11.00
2023-02-23T11:33:50.065Z,11.00
2023-02-23T11:36:18.869Z,11.00
2023-02-23T11:38:46.710Z,11.00
2023-02-23T11:41:21.894Z,11.00
2023-02-23T11:43:52.715Z,11.00
2023-02-23T11:46:21.782Z,11.10
2023-02-23T11:48:49.216Z,11.20
2023-02-23T11:51:26.469Z,11.40
2023-02-23T11:53:53.602Z,11.50
2023-02-23T11:56:22.504Z,11.50
2023-02-23T11:58:50.162Z,11.50
2023-02-23T12:01:18.785Z,11.50
2023-02-23T12:03:55.060Z,11.40
2023-02-23T12:06:35.410Z,11.40
2023-02-23T12:09:23.216Z,11.30
2023-02-23T12:12:01.183Z,11.30
2023-02-23T12:14:38.718Z,11.30
2023-02-23T12:17:07.103Z,11.40
2023-02-23T12:19:36.552Z,11.50
2023-02-23T12:22:05.535Z,11.50
2023-02-23T12:24:51.669Z,11.60
2023-02-23T12:27:29.421Z,11.60
2023-02-23T12:29:59.455Z,11.70
2023-02-23T12:32:45.483Z,11.70
2023-02-23T12:35:21.768Z,11.70
2023-02-23T12:37:56.330Z,11.60
2023-02-23T12:40:33.565Z,11.60
2023-02-23T12:43:12.917Z,11.50
2023-02-23T12:45:56.875Z,11.50
2023-02-23T12:48:43.931Z,11.50
2023-02-23T12:51:15.267Z,11.50
2023-02-23T12:53:42.937Z,11.50
2023-02-23T12:56:10.035Z,11.50
2023-02-23T12:58:37.686Z,11.50
2023-02-23T13:01:06.183Z,11.60
2023-02-23T13:03:37.529Z,11.60
2023-02-23T13:06:30.863Z,11.60
2023-02-23T13:09:01.298Z,11.60
2023-02-23T13:11:38.047Z,11.70
2023-02-23T13:14:17.243Z,11.70
2023-02-23T13:16:46.984Z,11.70
2023-02-23T13:19:19.478Z,11.70
2023-02-23T13:21:46.689Z,11.70
2023-02-23T13:24:21.978Z,11.70
2023-02-23T13:26:49.082Z,11.70
2023-02-23T13:29:25.934Z,11.70
2023-02-23T13:31:53.122Z,11.70
2023-02-23T13:34:25.543Z,11.70
2023-02-23T13:36:53.710Z,11.70
2023-02-23T13:39:39.201Z,11.70
2023-02-23T13:42:19.975Z,11.70
2023-02-23T13:44:49.404Z,11.70
2023-02-23T13:47:22.558Z,11.80
2023-02-23T13:49:51.076Z,11.80
2023-02-23T13:52:40.227Z,11.80
2023-02-23T13:55:49.085Z,11.80
2023-02-23T13:58:17.562Z,11.80
2023-02-23T14:00:44.651Z,11.70
2023-02-23T14:03:22.695Z,11.70
2023-02-23T14:05:54.041Z,11.70
2023-02-23T14:08:22.885Z,11.70
2023-02-23T14:10:50.084Z,11.70
2023-02-23T14:13:17.103Z,11.80
2023-02-23T14:15:54.533Z,11.80
2023-02-23T14:18:21.493Z,11.80
2023-02-23T14:20:58.338Z,11.80
2023-02-23T14:23:26.200Z,11.80
2023-02-23T14:26:08.715Z,11.70
2023-02-23T14:28:36.935Z,11.70
2023-02-23T14:31:13.577Z,11.70
2023-02-23T14:33:48.408Z,11.70
2023-02-23T14:36:40.986Z,11.70
2023-02-23T14:39:09.230Z,11.70
2023-02-23T14:41:50.208Z,11.70
2023-02-23T14:44:28.911Z,11.60
2023-02-23T14:47:08.089Z,11.60
2023-02-23T14:49:40.588Z,11.60
2023-02-23T14:52:08.316Z,11.50
2023-02-23T14:55:05.825Z,11.50
2023-02-23T14:57:34.411Z,11.50
2023-02-23T15:00:06.335Z,11.40
2023-02-23T15:02:34.313Z,11.40
2023-02-23T15:05:14.125Z,11.40
2023-02-23T15:07:41.204Z,11.40
2023-02-23T15:10:18.893Z,11.30
2023-02-23T15:12:46.063Z,11.30
2023-02-23T15:15:16.907Z,11.30
2023-02-23T15:17:45.063Z,11.30
2023-02-23T15:20:16.939Z,11.30
2023-02-23T15:22:47.878Z,11.20
2023-02-23T15:25:15.990Z,11.20
2023-02-23T15:27:44.083Z,11.20
2023-02-23T15:30:30.914Z,11.10
2023-02-23T15:33:04.111Z,11.20
2023-02-23T15:35:35.406Z,11.10
2023-02-23T15:38:13.694Z,11.10
2023-02-23T15:41:19.535Z,11.10
2023-02-23T15:43:46.837Z,11.00
2023-02-23T15:46:17.264Z,11.00
2023-02-23T15:48:45.827Z,10.90
2023-02-23T15:51:31.127Z,10.90
2023-02-23T15:53:59.059Z,10.80
2023-02-23T15:56:27.668Z,10.80
2023-02-23T15:59:25.388Z,10.80
2023-02-23T16:01:53.984Z,10.70
2023-02-23T16:04:21.609Z,10.70
2023-02-23T16:06:55.903Z,10.70
2023-02-23T16:09:27.041Z,10.70
2023-02-23T16:11:55.150Z,10.70
2023-02-23T16:14:22.715Z,10.60
2023-02-23T16:17:01.336Z,10.60
2023-02-23T16:19:40.650Z,10.60
2023-02-23T16:22:07.882Z,10.60
2023-02-23T16:24:34.903Z,10.60
2023-02-23T16:27:02.170Z,10.50
2023-02-23T16:29:33.580Z,10.50
2023-02-23T16:32:01.629Z,10.50
2023-02-23T16:35:00.819Z,10.50
2023-02-23T16:37:27.996Z,10.40
2023-02-23T16:39:57.997Z,10.50
2023-02-23T16:42:25.672Z,10.40
2023-02-23T16:44:52.892Z,10.40
2023-02-23T16:47:23.157Z,10.40
2023-02-23T16:49:50.589Z,10.40
2023-02-23T16:52:26.639Z,10.30
2023-02-23T16:54:55.894Z,10.30
2023-02-23T16:57:34.641Z,10.30
2023-02-23T17:00:01.765Z,10.30
2023-02-23T17:02:28.880Z,10.20
2023-02-23T17:04:58.885Z,10.20
2023-02-23T17:07:26.100Z,10.10
2023-02-23T17:09:53.201Z,10.10
2023-02-23T17:12:21.658Z,10.10
2023-02-23T17:14:49.235Z,10.00
2023-02-23T17:17:16.734Z,10.00
2023-02-23T17:19:54.885Z,10.00
2023-02-23T17:22:21.952Z,10.00
2023-02-23T17:24:49.091Z,9.90
2023-02-23T17:27:16.218Z,9.90
2023-02-23T17:29:43.281Z,9.80
2023-02-23T17:32:10.453Z,9.80
2023-02-23T17:34:37.877Z,9.70
2023-02-23T17:37:07.571Z,9.70
2023-02-23T17:39:37.308Z,9.60
2023-02-23T17:42:04.348Z,9.60
2023-02-23T17:44:31.341Z,9.60
2023-02-23T17:46:58.372Z,9.50
2023-02-23T17:49:25.429Z,9.40
2023-02-23T17:51:52.491Z,9.40
2023-02-23T17:54:19.512Z,9.30
2023-02-23T17:56:47.578Z,9.30
2023-02-23T17:59:15.097Z,9.20
2023-02-23T18:01:42.328Z,9.20
2023-02-23T18:04:09.450Z,9.10
2023-02-23T18:06:36.555Z,9.10
2023-02-23T18:09:05.974Z,9.00
2023-02-23T18:11:34.087Z,9.00
2023-02-23T18:14:04.261Z,9.00
2023-02-23T18:16:33.248Z,8.90
2023-02-23T18:19:00.320Z,8.90
2023-02-23T18:21:28.662Z,8.80
2023-02-23T18:23:55.916Z,8.80
2023-02-23T18:26:23.597Z,8.70
2023-02-23T18:28:51.067Z,8.60
2023-02-23T18:31:22.716Z,8.60
2023-02-23T18:33:52.603Z,8.60
2023-02-23T18:36:21.060Z,8.50
2023-02-23T18:38:48.297Z,8.50
2023-02-23T18:41:15.738Z,8.40
2023-02-23T18:43:42.788Z,8.40
2023-02-23T18:46:10.387Z,8.30
2023-02-23T18:48:37.707Z,8.30
2023-02-23T18:51:06.758Z,8.30
2023-02-23T18:53:37.201Z,8.20
2023-02-23T18:56:09.542Z,8.20
2023-02-23T18:58:36.932Z,8.20
2023-02-23T19:01:17.970Z,8.10
2023-02-23T19:03:45.289Z,8.10
2023-02-23T19:06:12.677Z,8.00
2023-02-23T19:08:39.783Z,8.00
2023-02-23T19:11:06.999Z,8.00
2023-02-23T19:13:34.247Z,7.90
2023-02-23T19:16:05.497Z,7.90
2023-02-23T19:18:33.663Z,7.90
2023-02-23T19:21:00.703Z,7.80
2023-02-23T19:23:27.889Z,7.80
2023-02-23T19:25:54.985Z,7.80
2023-02-23T19:28:22.423Z,7.70
2023-02-23T19:30:49.477Z,7.70
2023-02-23T19:33:16.727Z,7.60
2023-02-23T19:35:44.864Z,7.60
2023-02-23T19:38:12.010Z,7.60
2023-02-23T19:40:42.490Z,7.50
2023-02-23T19:43:10.220Z,7.50
2023-02-23T19:45:37.422Z,7.50
2023-02-23T19:48:04.860Z,7.40
2023-02-23T19:50:31.948Z,7.40
2023-02-23T19:52:59.050Z,7.30
2023-02-23T19:55:26.123Z,7.30
2023-02-23T19:57:53.207Z,7.30
2023-02-23T20:00:20.546Z,7.30
2023-02-23T20:02:52.182Z,7.20
2023-02-23T20:05:20.584Z,7.20
2023-02-23T20:07:48.454Z,7.20
2023-02-23T20:10:16.135Z,7.20
2023-02-23T20:12:43.277Z,7.10
2023-02-23T20:15:10.366Z,7.10
2023-02-23T20:17:40.114Z,7.00
2023-02-23T20:20:10.264Z,7.00
2023-02-23T20:22:37.599Z,7.00
2023-02-23T20:25:05.915Z,7.00
2023-02-23T20:27:34.869Z,7.00
2023-02-23T20:30:01.988Z,6.90
2023-02-23T20:32:29.216Z,6.90
2023-02-23T20:35:00.533Z,6.90
2023-02-23T20:37:27.587Z,6.90
2023-02-23T20:39:54.676Z,6.80
2023-02-23T20:42:21.715Z,6.80
2023-02-23T20:44:48.727Z,6.80
2023-02-23T20:47:15.769Z,6.80
2023-02-23T20:49:42.902Z,6.80
2023-02-23T20:52:11.894Z,6.80
2023-02-23T20:54:39.899Z,6.80
2023-02-23T20:57:09.940Z,6.80
2023-02-23T20:59:37.035Z,6.80
2023-02-23T21:02:04.855Z,6.80
2023-02-23T21:04:32.133Z,6.80
2023-02-23T21:06:59.787Z,6.80
2023-02-23T21:09:26.863Z,6.80
2023-02-23T21:11:54.869Z,6.80
2023-02-23T21:14:22.049Z,6.90
2023-02-23T21:16:49.172Z,6.90
2023-02-23T21:19:19.196Z,6.90
2023-02-23T21:21:47.176Z,6.90
2023-02-23T21:24:14.988Z,6.90
2023-02-23T21:26:42.517Z,6.90
2023-02-23T21:29:11.729Z,6.90
2023-02-23T21:31:39.169Z,6.90
2023-02-23T21:34:06.543Z,6.90
2023-02-23T21:36:33.886Z,6.90
2023-02-23T21:39:00.987Z,6.90
2023-02-23T21:41:28.969Z,6.90
2023-02-23T21:43:56.047Z,6.90
2023-02-23T21:46:23.203Z,6.90
2023-02-23T21:48:50.313Z,6.90
2023-02-23T21:51:17.462Z,6.90
2023-02-23T21:53:44.831Z,6.90
2023-02-23T21:56:13.998Z,6.90
2023-02-23T21:58:48.233Z,7.00
2023-02-23T22:01:16.262Z,6.90
2023-02-23T22:03:44.676Z,6.90
2023-02-23T22:06:12.672Z,6.90
2023-02-23T22:08:39.902Z,6.90
2023-02-23T22:11:08.017Z,6.90
2023-02-23T22:13:35.080Z,6.80
2023-02-23T22:16:02.428Z,6.80
2023-02-23T22:18:29.669Z,6.80
2023-02-23T22:21:00.049Z,6.80
2023-02-23T22:23:31.427Z,6.80
2023-02-23T22:26:01.518Z,6.80
2023-02-23T22:28:28.904Z,6.70
2023-02-23T22:30:56.182Z,6.70
2023-02-23T22:33:23.527Z,6.70
2023-02-23T22:35:50.799Z,6.70
2023-02-23T22:38:20.912Z,6.70
2023-02-23T22:40:48.113Z,6.70
2023-02-23T22:43:21.847Z,6.60
2023-02-23T22:45:53.122Z,6.60
2023-02-23T22:48:23.232Z,6.60
2023-02-23T22:50:50.551Z,6.60
2023-02-23T22:53:18.691Z,6.60
2023-02-23T22:55:46.353Z,6.60
2023-02-23T22:58:15.090Z,6.60
2023-02-23T23:01:00.781Z,6.60
2023-02-23T23:03:28.381Z,6.60
2023-02-23T23:05:56.841Z,6.60
2023-02-23T23:08:24.079Z,6.60
2023-02-23T23:10:51.123Z,6.60
2023-02-23T23:13:18.218Z,6.60
2023-02-23T23:15:46.076Z,6.60
2023-02-23T23:18:14.455Z,6.60
2023-02-23T23:20:43.784Z,6.60
2023-02-23T23:23:12.353Z,6.60
2023-02-23T23:25:42.212Z,6.60
2023-02-23T23:28:12.350Z,6.60
2023-02-23T23:30:40.963Z,6.60
2023-02-23T23:33:08.145Z,6.60
2023-02-23T23:35:35.328Z,6.60
2023-02-23T23:38:02.996Z,6.60
2023-02-23T23:40:35.545Z,6.60
2023-02-23T23:43:02.603Z,6.60
2023-02-23T23:45:30.883Z,6.60
2023-02-23T23:47:57.981Z,6.60
2023-02-23T23:50:27.397Z,6.60
2023-02-23T23:52:54.561Z,6.70
2023-02-23T23:55:22.292Z,6.70
2023-02-23T23:57:49.418Z,6.60
